createdAt,value
2018-08-12T00:00:26.525Z,12.25
2018-08-12T00:02:56.548Z,12.25
2018-08-12T00:05:25.792Z,12.24
2018-08-12T00:07:54.728Z,12.15
2018-08-12T00:10:24.459Z,12.07
2018-08-12T00:12:53.094Z,12.06
2018-08-12T00:15:22.719Z,11.89
2018-08-12T00:17:51.979Z,11.81
2018-08-12T00:20:22.128Z,11.84
2018-08-12T00:22:51.362Z,11.86
2018-08-12T00:25:21.579Z,11.87
2018-08-12T00:27:50.394Z,11.83
2018-08-12T00:30:20.095Z,11.91
2018-08-12T00:32:50.064Z,11.86
2018-08-12T00:35:19.663Z,11.76
2018-08-12T00:37:48.890Z,11.71
2018-08-12T00:40:18.084Z,11.63
2018-08-12T00:42:47.347Z,11.67
2018-08-12T00:45:20.231Z,11.69
2018-08-12T00:47:49.562Z,11.76
2018-08-12T00:50:19.338Z,11.73
2018-08-12T00:52:48.100Z,11.65
2018-08-12T00:55:17.697Z,11.69
2018-08-12T00:57:48.513Z,11.64
2018-08-12T01:00:20.434Z,11.59
2018-08-12T01:02:49.589Z,11.57
2018-08-12T01:05:20.173Z,11.52
2018-08-12T01:07:50.254Z,11.39
2018-08-12T01:10:19.552Z,11.40
2018-08-12T01:12:49.048Z,11.37
2018-08-12T01:15:19.710Z,11.30
2018-08-12T01:17:48.425Z,11.22
2018-08-12T01:20:19.712Z,11.14
2018-08-12T01:22:48.582Z,11.19
2018-08-12T01:25:17.326Z,11.19
2018-08-12T01:27:46.819Z,11.09
2018-08-12T01:30:17.808Z,11.05
2018-08-12T01:32:47.565Z,11.02
2018-08-12T01:35:16.782Z,11.06
2018-08-12T01:37:46.247Z,11.11
2018-08-12T01:40:16.192Z,11.01
2018-08-12T01:42:45.288Z,11.00
2018-08-12T01:45:15.818Z,10.98
2018-08-12T01:47:44.599Z,10.87
2018-08-12T01:50:14.895Z,10.80
2018-08-12T01:52:43.788Z,10.74
2018-08-12T01:55:12.528Z,10.69
2018-08-12T01:57:41.344Z,10.62
2018-08-12T02:00:13.789Z,10.63
2018-08-12T02:02:42.702Z,10.57
2018-08-12T02:05:11.584Z,10.55
2018-08-12T02:07:41.255Z,10.61
2018-08-12T02:10:10.418Z,10.62
2018-08-12T02:12:39.913Z,10.59
2018-08-12T02:15:09.999Z,10.59
2018-08-12T02:17:38.969Z,10.54
2018-08-12T02:20:09.412Z,10.51
2018-08-12T02:22:38.780Z,10.44
2018-08-12T02:25:08.460Z,10.41
2018-08-12T02:27:37.697Z,10.38
2018-08-12T02:30:08.007Z,10.33
2018-08-12T02:32:36.833Z,10.35
2018-08-12T02:35:05.634Z,10.36
2018-08-12T02:37:34.254Z,10.31
2018-08-12T02:40:02.956Z,10.26
2018-08-12T02:42:31.700Z,10.17
2018-08-12T02:45:00.420Z,10.20
2018-08-12T02:47:29.249Z,10.19
2018-08-12T02:49:57.975Z,10.13
2018-08-12T02:52:27.198Z,10.11
2018-08-12T02:54:56.483Z,10.05
2018-08-12T02:57:25.513Z,10.03
2018-08-12T02:59:54.444Z,9.99
2018-08-12T03:02:23.890Z,9.96
2018-08-12T03:04:52.894Z,9.94
2018-08-12T03:07:21.505Z,9.97
2018-08-12T03:09:50.060Z,9.93
2018-08-12T03:12:18.923Z,9.88
2018-08-12T03:14:47.736Z,9.87
2018-08-12T03:17:16.480Z,9.78
2018-08-12T03:19:45.830Z,9.78
2018-08-12T03:22:14.952Z,9.75
2018-08-12T03:24:43.639Z,9.71
2018-08-12T03:27:13.308Z,9.70
2018-08-12T03:29:42.552Z,9.65
2018-08-12T03:32:11.661Z,9.63
2018-08-12T03:34:41.056Z,9.62
2018-08-12T03:37:10.607Z,9.59
2018-08-12T03:39:39.299Z,9.50
2018-08-12T03:42:07.999Z,9.54
2018-08-12T03:44:36.858Z,9.53
2018-08-12T03:47:06.041Z,9.47
2018-08-12T03:49:34.683Z,9.49
2018-08-12T03:52:03.539Z,9.43
2018-08-12T03:54:32.379Z,9.39
2018-08-12T03:57:01.050Z,9.39
2018-08-12T03:59:29.825Z,9.29
2018-08-12T04:01:58.532Z,9.25
2018-08-12T04:04:27.336Z,9.33
2018-08-12T04:06:56.919Z,9.26
2018-08-12T04:09:25.876Z,9.28
2018-08-12T04:11:54.600Z,9.26
2018-08-12T04:14:23.481Z,9.25
2018-08-12T04:16:57.445Z,9.15
2018-08-12T04:19:26.012Z,9.11
2018-08-12T04:21:55.151Z,9.11
2018-08-12T04:24:24.082Z,9.22
2018-08-12T04:26:52.833Z,9.24
2018-08-12T04:29:22.004Z,9.20
2018-08-12T04:31:50.709Z,9.23
2018-08-12T04:34:19.389Z,9.30
2018-08-12T04:36:48.306Z,9.33
2018-08-12T04:39:16.869Z,9.34
2018-08-12T04:41:45.780Z,9.40
2018-08-12T04:44:14.290Z,9.49
2018-08-12T04:46:43.444Z,9.65
2018-08-12T04:49:12.269Z,9.72
2018-08-12T04:51:40.977Z,9.78
2018-08-12T04:54:10.108Z,9.93
2018-08-12T04:56:39.409Z,10.16
2018-08-12T04:59:08.603Z,10.47
2018-08-12T05:01:37.464Z,10.82
2018-08-12T05:04:06.139Z,11.19
2018-08-12T05:06:34.999Z,11.57
2018-08-12T05:09:06.490Z,11.94
2018-08-12T05:11:35.840Z,12.27
2018-08-12T05:14:04.961Z,12.57
2018-08-12T05:16:34.127Z,12.97
2018-08-12T05:19:03.289Z,13.33
2018-08-12T05:21:32.762Z,13.70
2018-08-12T05:24:01.729Z,13.85
2018-08-12T05:26:31.094Z,13.94
2018-08-12T05:28:59.934Z,13.81
2018-08-12T05:31:28.724Z,13.70
2018-08-12T05:33:57.665Z,13.51
2018-08-12T05:36:27.164Z,13.24
2018-08-12T05:38:56.379Z,13.18
2018-08-12T05:41:25.397Z,13.28
2018-08-12T05:43:54.721Z,13.35
2018-08-12T05:46:23.981Z,13.52
2018-08-12T05:48:52.819Z,13.85
2018-08-12T05:51:22.028Z,14.58
2018-08-12T05:53:50.925Z,15.67
2018-08-12T05:56:19.906Z,16.39
2018-08-12T05:58:48.951Z,16.47
2018-08-12T06:01:17.856Z,16.79
2018-08-12T06:03:46.611Z,17.71
2018-08-12T06:06:15.394Z,18.57
2018-08-12T06:08:44.860Z,18.87
2018-08-12T06:11:14.310Z,19.39
2018-08-12T06:13:42.984Z,19.88
2018-08-12T06:16:11.641Z,20.21
2018-08-12T06:18:40.440Z,20.58
2018-08-12T06:21:09.737Z,20.35
2018-08-12T06:23:38.896Z,21.26
2018-08-12T06:26:07.736Z,22.02
2018-08-12T06:28:36.829Z,22.46
2018-08-12T06:31:06.806Z,22.84
2018-08-12T06:33:35.776Z,22.92
2018-08-12T06:36:04.420Z,22.73
2018-08-12T06:38:33.201Z,23.06
2018-08-12T06:41:01.921Z,23.13
2018-08-12T06:43:30.610Z,23.56
2018-08-12T06:45:59.511Z,24.26
2018-08-12T06:48:28.670Z,24.27
2018-08-12T06:50:57.815Z,24.62
2018-08-12T06:53:26.611Z,24.54
2018-08-12T06:55:55.550Z,24.65
2018-08-12T06:58:24.532Z,25.93
2018-08-12T07:00:53.908Z,26.11
2018-08-12T07:03:22.870Z,26.19
2018-08-12T07:05:51.537Z,26.53
2018-08-12T07:08:20.266Z,27.13
2018-08-12T07:10:49.590Z,27.58
2018-08-12T07:13:18.434Z,27.22
2018-08-12T07:15:47.169Z,27.77
2018-08-12T07:18:15.776Z,28.10
2018-08-12T07:20:44.536Z,28.67
2018-08-12T07:23:13.755Z,28.78
2018-08-12T07:25:43.059Z,29.33
2018-08-12T07:28:12.193Z,30.15
2018-08-12T07:30:41.164Z,30.56
2018-08-12T07:33:09.924Z,31.22
2018-08-12T07:35:39.265Z,31.24
2018-08-12T07:38:08.176Z,31.80
2018-08-12T07:40:37.341Z,31.68
2018-08-12T07:43:06.731Z,31.72
2018-08-12T07:45:35.795Z,31.58
2018-08-12T07:48:04.716Z,32.62
2018-08-12T07:50:33.592Z,32.28
2018-08-12T07:53:02.476Z,32.02
2018-08-12T07:55:31.411Z,33.24
2018-08-12T07:58:00.065Z,33.43
2018-08-12T08:00:29.165Z,33.45
2018-08-12T08:02:57.932Z,34.44
2018-08-12T08:05:26.699Z,35.47
2018-08-12T08:07:55.865Z,35.75
2018-08-12T08:10:25.190Z,34.82
2018-08-12T08:12:53.752Z,35.03
2018-08-12T08:15:22.517Z,36.27
2018-08-12T08:17:51.740Z,36.27
2018-08-12T08:20:20.630Z,35.61
2018-08-12T08:22:50.166Z,36.55
2018-08-12T08:25:19.616Z,37.00
2018-08-12T08:27:48.666Z,37.48
2018-08-12T08:30:17.629Z,37.38
2018-08-12T08:32:46.535Z,38.35
2018-08-12T08:35:15.405Z,39.19
2018-08-12T08:37:44.382Z,38.81
2018-08-12T08:40:15.594Z,38.27
2018-08-12T08:42:44.726Z,38.44
2018-08-12T08:45:15.779Z,37.46
2018-08-12T08:47:47.321Z,37.62
2018-08-12T08:50:18.087Z,37.22
2018-08-12T08:52:46.836Z,39.84
2018-08-12T08:55:16.211Z,39.73
2018-08-12T08:57:45.541Z,41.06
2018-08-12T09:00:18.132Z,40.72
2018-08-12T09:02:48.430Z,41.76
2018-08-12T09:05:17.832Z,41.43
2018-08-12T09:07:46.906Z,40.76
2018-08-12T09:10:17.128Z,41.59
2018-08-12T09:12:46.320Z,42.84
2018-08-12T09:15:16.976Z,42.29
2018-08-12T09:17:46.411Z,41.47
2018-08-12T09:20:16.667Z,41.78
2018-08-12T09:22:45.470Z,42.12
2018-08-12T09:25:14.682Z,42.30
2018-08-12T09:27:43.532Z,42.37
2018-08-12T09:30:16.027Z,42.25
2018-08-12T09:32:45.397Z,43.07
2018-08-12T09:35:14.234Z,42.33
2018-08-12T09:37:43.331Z,43.19
2018-08-12T09:40:13.849Z,44.19
2018-08-12T09:42:43.556Z,44.63
2018-08-12T09:45:14.731Z,45.26
2018-08-12T09:47:44.197Z,45.74
2018-08-12T09:50:15.399Z,46.14
2018-08-12T09:52:44.605Z,45.53
2018-08-12T09:55:14.212Z,45.92
2018-08-12T09:57:42.972Z,46.00
2018-08-12T10:00:19.361Z,45.13
2018-08-12T10:02:48.677Z,46.37
2018-08-12T10:05:17.812Z,44.98
2018-08-12T10:07:47.052Z,45.55
2018-08-12T10:10:16.426Z,46.17
2018-08-12T10:12:45.412Z,47.21
2018-08-12T10:15:15.595Z,46.87
2018-08-12T10:17:46.625Z,46.57
2018-08-12T10:20:16.185Z,45.77
2018-08-12T10:22:44.551Z,47.49
2018-08-12T10:25:12.640Z,48.66
2018-08-12T10:27:40.742Z,49.06
2018-08-12T10:30:10.033Z,49.51
2018-08-12T10:32:38.301Z,48.08
2018-08-12T10:35:07.214Z,47.69
2018-08-12T10:37:35.450Z,46.58
2018-08-12T10:40:04.572Z,46.98
2018-08-12T10:42:33.536Z,47.68
2018-08-12T10:45:02.502Z,46.35
2018-08-12T10:47:30.313Z,46.38
2018-08-12T10:49:58.971Z,47.00
2018-08-12T10:52:27.927Z,44.76
2018-08-12T10:54:57.338Z,43.75
2018-08-12T10:57:26.563Z,42.55
2018-08-12T10:59:55.586Z,42.36
2018-08-12T11:02:24.816Z,41.25
2018-08-12T11:04:54.621Z,40.03
2018-08-12T11:07:23.395Z,38.95
2018-08-12T11:09:52.562Z,37.83
2018-08-12T11:12:21.723Z,36.68
2018-08-12T11:14:51.598Z,36.37
2018-08-12T11:17:21.176Z,36.35
2018-08-12T11:19:49.961Z,35.32
2018-08-12T11:22:18.748Z,35.26
2018-08-12T11:24:47.582Z,35.90
2018-08-12T11:27:16.209Z,35.51
2018-08-12T11:29:44.903Z,35.38
2018-08-12T11:32:13.712Z,34.78
2018-08-12T11:34:42.796Z,34.53
2018-08-12T11:37:11.986Z,34.82
2018-08-12T11:39:40.877Z,34.76
2018-08-12T11:42:11.517Z,34.75
2018-08-12T11:44:40.525Z,34.46
2018-08-12T11:47:09.304Z,33.91
2018-08-12T11:49:38.223Z,33.81
2018-08-12T11:52:07.459Z,34.21
2018-08-12T11:54:36.166Z,33.97
2018-08-12T11:57:05.035Z,33.68
2018-08-12T11:59:33.688Z,33.64
2018-08-12T12:02:02.472Z,33.26
2018-08-12T12:04:31.723Z,33.48
2018-08-12T12:07:00.689Z,33.38
2018-08-12T12:09:31.117Z,33.74
2018-08-12T12:12:00.270Z,33.80
2018-08-12T12:14:29.301Z,33.57
2018-08-12T12:16:58.471Z,33.70
2018-08-12T12:19:27.407Z,33.71
2018-08-12T12:21:56.264Z,33.41
2018-08-12T12:24:25.337Z,33.28
2018-08-12T12:26:54.142Z,32.85
2018-08-12T12:29:22.992Z,32.90
2018-08-12T12:31:51.809Z,32.72
2018-08-12T12:34:20.917Z,32.79
2018-08-12T12:36:50.136Z,32.94
2018-08-12T12:39:18.931Z,32.68
2018-08-12T12:41:48.018Z,32.82
2018-08-12T12:44:17.159Z,32.97
2018-08-12T12:46:46.123Z,33.07
2018-08-12T12:49:14.951Z,33.09
2018-08-12T12:51:43.777Z,33.03
2018-08-12T12:54:12.972Z,33.02
2018-08-12T12:56:41.766Z,33.06
2018-08-12T12:59:10.533Z,33.22
2018-08-12T13:01:39.652Z,33.04
2018-08-12T13:04:08.525Z,32.70
2018-08-12T13:06:37.392Z,31.68
2018-08-12T13:09:09.557Z,31.97
2018-08-12T13:11:38.463Z,32.28
2018-08-12T13:14:07.678Z,32.29
2018-08-12T13:16:36.981Z,32.30
2018-08-12T13:19:06.424Z,32.38
2018-08-12T13:21:35.507Z,32.58
2018-08-12T13:24:04.604Z,32.56
2018-08-12T13:26:33.502Z,32.31
2018-08-12T13:29:02.341Z,32.39
2018-08-12T13:31:32.398Z,32.15
2018-08-12T13:34:01.278Z,32.00
2018-08-12T13:36:30.057Z,31.97
2018-08-12T13:45:16.417Z,32.28
2018-08-12T13:47:46.088Z,32.25
2018-08-12T13:50:19.819Z,32.30
2018-08-12T13:52:49.027Z,32.21
2018-08-12T13:55:18.572Z,32.08
2018-08-12T13:57:48.253Z,32.10
2018-08-12T14:00:19.793Z,32.14
2018-08-12T14:02:49.013Z,32.12
2018-08-12T14:05:18.828Z,32.06
2018-08-12T14:07:48.837Z,32.04
2018-08-12T14:10:17.624Z,32.12
2018-08-12T14:12:46.544Z,32.06
2018-08-12T14:15:17.482Z,31.97
2018-08-12T14:17:48.030Z,32.03
2018-08-12T14:20:18.518Z,31.97
2018-08-12T14:22:47.529Z,31.92
2018-08-12T14:25:16.324Z,31.85
2018-08-12T14:27:46.075Z,31.64
2018-08-12T14:30:17.220Z,31.67
2018-08-12T14:32:47.344Z,31.77
2018-08-12T14:35:16.537Z,31.69
2018-08-12T14:37:45.397Z,31.74
2018-08-12T14:40:14.847Z,31.67
2018-08-12T14:42:44.537Z,31.56
2018-08-12T14:45:14.477Z,31.24
2018-08-12T14:47:43.835Z,31.17
2018-08-12T14:50:14.446Z,31.16
2018-08-12T14:52:43.614Z,31.20
2018-08-12T14:55:12.850Z,31.21
2018-08-12T14:57:42.481Z,31.17
2018-08-12T15:00:17.112Z,31.13
2018-08-12T15:02:47.082Z,31.01
2018-08-12T15:05:16.008Z,30.83
2018-08-12T15:07:44.849Z,30.79
2018-08-12T15:10:14.407Z,30.77
2018-08-12T15:12:43.933Z,30.76
2018-08-12T15:15:13.968Z,30.72
2018-08-12T15:17:44.066Z,30.71
2018-08-12T15:20:13.858Z,30.66
2018-08-12T15:22:43.103Z,30.67
2018-08-12T15:25:13.767Z,30.64
2018-08-12T15:27:42.812Z,30.59
2018-08-12T15:30:12.049Z,30.57
2018-08-12T15:32:40.976Z,30.51
2018-08-12T15:35:10.193Z,30.48
2018-08-12T15:37:39.189Z,30.43
2018-08-12T15:40:10.603Z,30.38
2018-08-12T15:42:39.555Z,30.32
2018-08-12T15:45:10.789Z,30.26
2018-08-12T15:47:40.178Z,30.24
2018-08-12T15:50:10.104Z,30.20
2018-08-12T15:52:39.522Z,30.03
2018-08-12T15:55:09.518Z,30.04
2018-08-12T15:57:38.509Z,30.05
2018-08-12T16:00:18.994Z,29.99
2018-08-12T16:02:47.816Z,29.85
2018-08-12T16:05:16.750Z,29.86
2018-08-12T16:07:46.873Z,29.85
2018-08-12T16:10:18.290Z,29.81
2018-08-12T16:12:48.474Z,29.71
2018-08-12T16:15:17.488Z,29.65
2018-08-12T16:17:46.652Z,29.65
2018-08-12T16:20:15.908Z,29.61
2018-08-12T16:22:45.170Z,29.57
2018-08-12T16:25:21.250Z,29.51
2018-08-12T16:27:50.397Z,29.49
2018-08-12T16:30:19.787Z,29.46
2018-08-12T16:32:48.563Z,29.39
2018-08-12T16:35:18.241Z,29.38
2018-08-12T16:37:47.870Z,29.37
2018-08-12T16:40:19.540Z,29.34
2018-08-12T16:42:48.875Z,29.27
2018-08-12T16:45:18.783Z,29.22
2018-08-12T16:47:48.287Z,29.17
2018-08-12T16:50:17.314Z,29.11
2018-08-12T16:52:46.583Z,29.07
2018-08-12T16:55:16.862Z,29.01
2018-08-12T16:57:46.628Z,28.99
2018-08-12T17:00:20.099Z,28.90
2018-08-12T17:02:48.962Z,28.88
2018-08-12T17:05:20.113Z,28.86
2018-08-12T17:07:49.268Z,28.83
2018-08-12T17:10:19.024Z,28.79
2018-08-12T17:12:47.884Z,28.75
2018-08-12T17:15:18.745Z,28.75
2018-08-12T17:17:47.911Z,28.70
2018-08-12T17:20:17.784Z,28.62
2018-08-12T17:22:47.147Z,28.56
2018-08-12T17:25:16.284Z,28.50
2018-08-12T17:27:45.195Z,28.42
2018-08-12T17:30:15.655Z,28.25
2018-08-12T17:32:44.869Z,28.10
2018-08-12T17:35:14.020Z,28.00
2018-08-12T17:37:43.873Z,27.82
2018-08-12T17:40:13.795Z,27.74
2018-08-12T17:42:42.792Z,27.67
2018-08-12T17:45:13.502Z,27.63
2018-08-12T17:47:42.720Z,27.61
2018-08-12T17:50:13.970Z,27.57
2018-08-12T17:52:43.749Z,27.50
2018-08-12T17:55:12.722Z,27.48
2018-08-12T17:57:41.993Z,27.47
2018-08-12T18:00:14.084Z,27.44
2018-08-12T18:02:43.437Z,27.41
2018-08-12T18:05:12.540Z,27.40
2018-08-12T18:07:41.845Z,27.30
2018-08-12T18:10:11.065Z,27.23
2018-08-12T18:12:40.083Z,27.12
2018-08-12T18:15:10.657Z,26.98
2018-08-12T18:17:40.376Z,26.68
2018-08-12T18:20:09.492Z,26.52
2018-08-12T18:22:39.055Z,26.27
2018-08-12T18:25:09.896Z,26.07
2018-08-12T18:27:38.683Z,25.99
2018-08-12T18:30:10.055Z,25.80
2018-08-12T18:32:38.889Z,25.61
2018-08-12T18:35:09.536Z,25.49
2018-08-12T18:37:38.620Z,25.15
2018-08-12T18:40:08.599Z,24.97
2018-08-12T18:42:38.955Z,24.86
2018-08-12T18:45:08.154Z,24.79
2018-08-12T18:47:37.329Z,24.68
2018-08-12T18:50:07.564Z,24.45
2018-08-12T18:52:36.642Z,24.29
2018-08-12T18:55:07.773Z,24.28
2018-08-12T18:57:37.193Z,24.15
2018-08-12T19:00:08.581Z,23.98
2018-08-12T19:02:37.831Z,23.75
2018-08-12T19:05:07.550Z,23.73
2018-08-12T19:07:36.960Z,23.63
2018-08-12T19:10:07.560Z,23.46
2018-08-12T19:12:38.944Z,23.41
2018-08-12T19:15:10.516Z,23.25
2018-08-12T19:17:40.613Z,23.08
2018-08-12T19:20:11.175Z,22.90
2018-08-12T19:22:40.888Z,22.63
2018-08-12T19:25:10.691Z,22.56
2018-08-12T19:27:41.504Z,22.53
2018-08-12T19:30:13.025Z,22.31
2018-08-12T19:32:42.573Z,22.15
2018-08-12T19:35:13.427Z,22.00
2018-08-12T19:37:43.709Z,22.06
2018-08-12T19:40:13.134Z,22.02
2018-08-12T19:42:43.796Z,21.91
2018-08-12T19:45:13.356Z,21.73
2018-08-12T19:47:42.625Z,21.74
2018-08-12T19:50:12.003Z,21.67
2018-08-12T19:52:42.663Z,21.54
2018-08-12T19:55:11.390Z,21.43
2018-08-12T19:57:40.862Z,21.36
2018-08-12T20:00:12.281Z,21.33
2018-08-12T20:02:41.648Z,21.17
2018-08-12T20:05:10.498Z,21.04
2018-08-12T20:07:39.241Z,21.01
2018-08-12T20:10:09.698Z,20.78
2018-08-12T20:12:38.779Z,20.57
2018-08-12T20:15:09.444Z,20.40
2018-08-12T20:17:38.414Z,20.27
2018-08-12T20:20:08.973Z,20.07
2018-08-12T20:22:37.842Z,19.94
2018-08-12T20:25:08.173Z,19.86
2018-08-12T20:27:37.160Z,19.84
2018-08-12T20:30:08.201Z,19.48
2018-08-12T20:32:36.970Z,19.39
2018-08-12T20:35:05.948Z,19.24
2018-08-12T20:37:35.181Z,19.19
2018-08-12T20:40:04.238Z,19.23
2018-08-12T20:42:33.129Z,19.13
2018-08-12T20:45:02.591Z,19.00
2018-08-12T20:47:31.609Z,18.93
2018-08-12T20:50:00.430Z,18.95
2018-08-12T20:52:29.585Z,18.85
2018-08-12T20:54:58.629Z,18.72
2018-08-12T20:57:28.180Z,18.61
2018-08-12T20:59:57.156Z,18.53
2018-08-12T21:02:27.360Z,18.43
2018-08-12T21:04:56.560Z,18.20
2018-08-12T21:07:25.713Z,18.05
2018-08-12T21:09:54.899Z,18.11
2018-08-12T21:12:24.136Z,18.14
2018-08-12T21:14:53.434Z,18.05
2018-08-12T21:17:22.844Z,17.89
2018-08-12T21:19:51.855Z,17.87
2018-08-12T21:22:21.035Z,17.94
2018-08-12T21:24:50.134Z,17.70
2018-08-12T21:27:19.775Z,17.76
2018-08-12T21:29:49.115Z,17.73
2018-08-12T21:32:17.929Z,17.68
2018-08-12T21:34:47.110Z,17.51
2018-08-12T21:37:16.380Z,17.44
2018-08-12T21:39:45.611Z,17.40
2018-08-12T21:42:14.524Z,17.37
2018-08-12T21:44:43.303Z,17.33
2018-08-12T21:47:12.250Z,17.30
2018-08-12T21:49:41.514Z,17.19
2018-08-12T21:52:10.368Z,17.10
2018-08-12T21:54:39.895Z,17.13
2018-08-12T21:57:08.886Z,17.07
2018-08-12T21:59:37.831Z,16.99
2018-08-12T22:02:07.294Z,16.97
2018-08-12T22:04:36.560Z,16.93
2018-08-12T22:07:06.250Z,16.81
2018-08-12T22:09:35.340Z,16.64
2018-08-12T22:12:04.598Z,16.52
2018-08-12T22:14:33.615Z,16.55
2018-08-12T22:17:02.389Z,16.53
2018-08-12T22:19:31.196Z,16.60
2018-08-12T22:22:00.584Z,16.60
2018-08-12T22:24:29.425Z,16.48
2018-08-12T22:26:58.283Z,16.42
2018-08-12T22:29:27.200Z,16.43
2018-08-12T22:31:56.409Z,16.36
2018-08-12T22:34:25.639Z,16.20
2018-08-12T22:36:55.100Z,16.13
2018-08-12T22:39:24.036Z,16.09
2018-08-12T22:41:52.930Z,16.09
2018-08-12T22:44:21.723Z,16.10
2018-08-12T22:46:50.379Z,16.04
2018-08-12T22:49:21.115Z,15.95
2018-08-12T22:51:50.123Z,15.90
2018-08-12T22:54:19.275Z,15.86
2018-08-12T22:56:48.721Z,15.88
2018-08-12T22:59:17.754Z,15.87
2018-08-12T23:01:46.434Z,15.85
2018-08-12T23:04:15.312Z,15.81
2018-08-12T23:06:45.461Z,15.74
2018-08-12T23:09:14.818Z,15.71
2018-08-12T23:11:43.649Z,15.68
2018-08-12T23:14:13.254Z,15.56
2018-08-12T23:16:53.025Z,15.53
2018-08-12T23:19:22.524Z,15.52
2018-08-12T23:21:51.140Z,15.52
2018-08-12T23:24:21.659Z,15.45
2018-08-12T23:26:50.614Z,15.38
2018-08-12T23:29:19.220Z,15.37
2018-08-12T23:31:48.619Z,15.31
2018-08-12T23:34:17.254Z,15.29
2018-08-12T23:36:46.066Z,15.15
2018-08-12T23:39:14.739Z,15.15
2018-08-12T23:41:44.305Z,15.17
2018-08-12T23:44:12.955Z,15.14
2018-08-12T23:46:41.630Z,14.99
2018-08-12T23:49:10.306Z,15.00
2018-08-12T23:51:39.945Z,14.96
2018-08-12T23:54:08.595Z,14.94
2018-08-12T23:56:37.312Z,14.88
2018-08-12T23:59:06.011Z,14.85
